createdAt,value
2023-02-19T00:01:53.221Z,99926.54
2023-02-19T00:04:22.569Z,99921.14
2023-02-19T00:06:50.891Z,99914.11
2023-02-19T00:09:19.846Z,99905.52
2023-02-19T00:11:48.199Z,99915.42
2023-02-19T00:14:18.998Z,99917.10
2023-02-19T00:16:47.426Z,99916.78
2023-02-19T00:19:17.904Z,99918.98
2023-02-19T00:21:46.162Z,99917.09
2023-02-19T00:24:16.239Z,99920.91
2023-02-19T00:26:45.181Z,99922.94
2023-02-19T00:29:15.692Z,99924.53
2023-02-19T00:31:44.773Z,99922.21
2023-02-19T00:34:13.946Z,99920.73
2023-02-19T00:36:42.864Z,99914.36
2023-02-19T00:39:15.219Z,99908.77
2023-02-19T00:41:43.377Z,99903.54
2023-02-19T00:44:14.417Z,99904.23
2023-02-19T00:46:44.347Z,99904.66
2023-02-19T00:49:16.577Z,99907.12
2023-02-19T00:51:44.243Z,99905.90
2023-02-19T00:54:12.935Z,99911.80
2023-02-19T00:56:41.015Z,99908.80
2023-02-19T00:59:09.388Z,99909.66
2023-02-19T01:01:37.464Z,99914.29
2023-02-19T01:04:06.697Z,99912.23
2023-02-19T01:06:35.592Z,99909.89
2023-02-19T01:09:05.001Z,99902.60
2023-02-19T01:11:32.675Z,99901.42
2023-02-19T01:14:01.741Z,99903.07
2023-02-19T01:16:30.919Z,99900.61
2023-02-19T01:18:59.485Z,99894.55
2023-02-19T01:21:28.434Z,99894.27
2023-02-19T01:23:57.359Z,99890.86
2023-02-19T01:26:30.623Z,99894.05
2023-02-19T01:29:00.035Z,99894.08
2023-02-19T01:31:28.764Z,99899.09
2023-02-19T01:34:00.026Z,99904.48
2023-02-19T01:36:29.024Z,99898.59
2023-02-19T01:38:57.051Z,99898.91
2023-02-19T01:41:25.975Z,99902.30
2023-02-19T01:43:56.562Z,99898.63
2023-02-19T01:46:43.850Z,99897.98
2023-02-19T01:49:27.843Z,99896.98
2023-02-19T01:51:58.450Z,99896.20
2023-02-19T01:54:30.916Z,99894.54
2023-02-19T01:56:59.988Z,99891.39
2023-02-19T01:59:27.768Z,99890.54
2023-02-19T02:01:56.160Z,99894.56
2023-02-19T02:04:24.486Z,99900.08
2023-02-19T02:06:58.702Z,99904.27
2023-02-19T02:09:49.679Z,99898.55
2023-02-19T02:12:17.347Z,99899.12
2023-02-19T02:14:48.081Z,99899.14
2023-02-19T02:17:29.455Z,99898.47
2023-02-19T02:20:26.545Z,99893.79
2023-02-19T02:23:00.695Z,99891.53
2023-02-19T02:26:02.005Z,99893.81
2023-02-19T02:29:15.097Z,99896.88
2023-02-19T02:31:48.656Z,99895.44
2023-02-19T02:34:23.276Z,99898.97
2023-02-19T02:36:55.680Z,99902.00
2023-02-19T02:39:27.033Z,99901.77
2023-02-19T02:42:18.834Z,99899.69
2023-02-19T02:45:10.966Z,99899.14
2023-02-19T02:47:47.680Z,99893.80
2023-02-19T02:50:18.606Z,99892.14
2023-02-19T02:53:08.890Z,99889.05
2023-02-19T02:55:43.014Z,99882.33
2023-02-19T02:58:12.484Z,99880.26
2023-02-19T03:01:04.268Z,99875.14
2023-02-19T03:03:32.627Z,99868.91
2023-02-19T03:06:04.821Z,99871.71
2023-02-19T03:08:40.551Z,99873.18
2023-02-19T03:11:30.383Z,99873.04
2023-02-19T03:14:28.745Z,99869.55
2023-02-19T03:17:26.733Z,99870.73
2023-02-19T03:19:58.338Z,99876.26
2023-02-19T03:22:31.026Z,99874.52
2023-02-19T03:25:28.354Z,99880.10
2023-02-19T03:28:00.432Z,99881.59
2023-02-19T03:30:39.165Z,99881.11
2023-02-19T03:33:15.828Z,99874.08
2023-02-19T03:36:06.621Z,99868.48
2023-02-19T03:38:41.288Z,99868.63
2023-02-19T03:41:25.762Z,99864.23
2023-02-19T03:44:07.797Z,99861.15
2023-02-19T03:46:53.892Z,99863.24
2023-02-19T03:49:43.682Z,99858.36
2023-02-19T03:52:20.585Z,99852.34
2023-02-19T03:54:58.634Z,99854.54
2023-02-19T03:57:48.400Z,99852.74
2023-02-19T04:00:32.904Z,99852.98
2023-02-19T04:03:12.385Z,99852.11
2023-02-19T04:05:52.022Z,99853.69
2023-02-19T04:08:24.295Z,99852.59
2023-02-19T04:11:00.138Z,99850.41
2023-02-19T04:13:46.705Z,99844.84
2023-02-19T04:16:24.457Z,99838.75
2023-02-19T04:18:57.253Z,99839.87
2023-02-19T04:21:26.730Z,99843.77
2023-02-19T04:23:56.262Z,99832.20
2023-02-19T04:26:24.256Z,99829.29
2023-02-19T04:28:51.943Z,99831.96
2023-02-19T04:31:19.846Z,99825.71
2023-02-19T04:33:47.522Z,99824.00
2023-02-19T04:36:15.136Z,99818.42
2023-02-19T04:38:42.771Z,99818.23
2023-02-19T04:41:10.864Z,99819.80
2023-02-19T04:43:38.664Z,99821.93
2023-02-19T04:46:06.299Z,99825.90
2023-02-19T04:48:33.980Z,99828.23
2023-02-19T04:51:06.664Z,99833.58
2023-02-19T04:53:35.921Z,99831.59
2023-02-19T04:56:09.002Z,99830.36
2023-02-19T05:09:00.113Z,99815.90
2023-02-19T05:11:27.952Z,99821.92
2023-02-19T05:13:56.231Z,99817.99
2023-02-19T05:16:23.923Z,99814.71
2023-02-19T05:18:51.542Z,99817.13
2023-02-19T05:21:19.503Z,99813.84
2023-02-19T05:23:47.163Z,99805.96
2023-02-19T05:26:21.294Z,99806.89
2023-02-19T05:28:53.350Z,99805.21
2023-02-19T05:31:21.626Z,99800.16
2023-02-19T05:33:51.351Z,99793.30
2023-02-19T05:36:20.353Z,99788.67
2023-02-19T05:38:52.763Z,99786.11
2023-02-19T05:41:24.421Z,99793.23
2023-02-19T05:43:52.283Z,99792.80
2023-02-19T05:46:23.018Z,99795.04
2023-02-19T05:48:52.372Z,99785.58
2023-02-19T05:51:22.780Z,99780.21
2023-02-19T05:53:51.168Z,99781.53
2023-02-19T05:56:30.922Z,99791.45
2023-02-19T05:59:00.085Z,99794.74
2023-02-19T06:01:28.980Z,99794.73
2023-02-19T06:03:58.036Z,99790.02
2023-02-19T06:06:27.186Z,99801.05
2023-02-19T06:08:55.040Z,99801.96
2023-02-19T06:11:23.652Z,99806.43
2023-02-19T06:13:51.502Z,99805.94
2023-02-19T06:16:19.714Z,99806.63
2023-02-19T06:18:47.730Z,99810.33
2023-02-19T06:21:17.029Z,99814.20
2023-02-19T06:23:45.078Z,99819.02
2023-02-19T06:26:20.463Z,99827.06
2023-02-19T06:28:50.290Z,99823.79
2023-02-19T06:31:19.671Z,99827.20
2023-02-19T06:33:47.710Z,99825.33
2023-02-19T06:36:17.796Z,99826.91
2023-02-19T06:38:45.663Z,99827.39
2023-02-19T06:41:14.197Z,99830.30
2023-02-19T06:43:42.770Z,99827.52
2023-02-19T06:46:12.034Z,99821.92
2023-02-19T06:48:41.208Z,99819.17
2023-02-19T06:51:14.041Z,99817.73
2023-02-19T06:53:42.191Z,99821.02
2023-02-19T06:56:29.703Z,99822.71
2023-02-19T06:59:01.023Z,99830.98
2023-02-19T07:01:34.264Z,99834.00
2023-02-19T07:04:02.932Z,99836.31
2023-02-19T07:06:31.262Z,99843.65
2023-02-19T07:08:59.139Z,99836.83
2023-02-19T07:11:29.933Z,99835.98
2023-02-19T07:13:59.463Z,99837.10
2023-02-19T07:16:27.389Z,99840.30
2023-02-19T07:18:59.199Z,99841.30
2023-02-19T07:21:28.178Z,99841.80
2023-02-19T07:23:56.427Z,99839.05
2023-02-19T07:26:24.201Z,99838.88
2023-02-19T07:28:54.321Z,99840.36
2023-02-19T07:31:24.212Z,99842.67
2023-02-19T07:33:52.318Z,99841.74
2023-02-19T07:36:21.659Z,99838.35
2023-02-19T07:39:00.737Z,99838.80
2023-02-19T07:41:28.717Z,99844.95
2023-02-19T07:43:59.113Z,99849.70
2023-02-19T07:46:27.648Z,99850.42
2023-02-19T07:48:56.107Z,99849.30
2023-02-19T07:51:24.622Z,99854.89
2023-02-19T07:53:52.779Z,99853.42
2023-02-19T07:56:21.377Z,99854.52
2023-02-19T07:58:49.762Z,99851.06
2023-02-19T08:01:45.511Z,99849.71
2023-02-19T08:04:14.514Z,99857.86
2023-02-19T08:06:44.330Z,99859.30
2023-02-19T08:09:12.080Z,99857.98
2023-02-19T08:11:58.481Z,99862.21
2023-02-19T08:14:27.628Z,99861.34
2023-02-19T08:16:55.816Z,99857.80
2023-02-19T08:19:24.488Z,99861.16
2023-02-19T08:21:53.595Z,99863.17
2023-02-19T08:24:22.451Z,99868.01
2023-02-19T08:26:50.342Z,99868.67
2023-02-19T08:29:18.150Z,99869.78
2023-02-19T08:31:46.053Z,99870.27
2023-02-19T08:34:13.728Z,99871.69
2023-02-19T08:36:41.558Z,99872.67
2023-02-19T08:39:10.232Z,99876.92
2023-02-19T08:41:45.274Z,99882.45
2023-02-19T08:44:13.331Z,99884.42
2023-02-19T08:46:41.454Z,99886.58
2023-02-19T08:49:09.246Z,99881.02
2023-02-19T08:51:39.614Z,99881.64
2023-02-19T08:54:07.394Z,99878.70
2023-02-19T08:56:35.148Z,99878.62
2023-02-19T08:59:03.024Z,99878.22
2023-02-19T09:01:30.818Z,99877.26
2023-02-19T09:03:58.679Z,99875.40
2023-02-19T09:06:26.632Z,99875.27
2023-02-19T09:08:54.532Z,99873.77
2023-02-19T09:11:22.226Z,99873.48
2023-02-19T09:13:49.880Z,99875.35
2023-02-19T09:16:17.596Z,99871.16
2023-02-19T09:18:45.890Z,99872.15
2023-02-19T09:21:13.743Z,99872.95
2023-02-19T09:23:41.528Z,99870.94
2023-02-19T09:26:11.432Z,99871.46
2023-02-19T09:28:41.662Z,99872.50
2023-02-19T09:31:13.122Z,99878.44
2023-02-19T09:33:46.000Z,99880.90
2023-02-19T09:36:15.091Z,99881.85
2023-02-19T09:38:42.862Z,99885.23
2023-02-19T09:41:30.803Z,99883.59
2023-02-19T09:44:02.008Z,99881.05
2023-02-19T09:46:40.820Z,99885.67
2023-02-19T09:49:17.413Z,99891.48
2023-02-19T09:52:00.060Z,99890.88
2023-02-19T09:54:31.012Z,99887.43
2023-02-19T09:57:02.205Z,99893.64
2023-02-19T09:59:40.382Z,99891.79
2023-02-19T10:02:11.556Z,99888.02
2023-02-19T10:04:42.838Z,99887.62
2023-02-19T10:07:13.538Z,99892.16
2023-02-19T10:09:41.745Z,99890.14
2023-02-19T10:12:21.981Z,99887.88
2023-02-19T10:14:52.808Z,99888.02
2023-02-19T10:31:24.088Z,99896.70
2023-02-19T10:33:51.697Z,99901.04
2023-02-19T10:36:38.244Z,99905.70
2023-02-19T10:39:32.920Z,99906.30
2023-02-19T10:41:59.843Z,99907.06
2023-02-19T10:44:37.953Z,99913.25
2023-02-19T10:47:05.754Z,99913.42
2023-02-19T10:49:47.051Z,99912.83
2023-02-19T10:52:34.818Z,99918.89
2023-02-19T10:55:37.927Z,99920.35
2023-02-19T10:58:27.069Z,99920.50
2023-02-19T11:01:18.746Z,99922.30
2023-02-19T11:03:47.830Z,99917.33
2023-02-19T11:06:16.977Z,99919.27
2023-02-19T11:09:00.355Z,99912.00
2023-02-19T11:11:40.740Z,99914.02
2023-02-19T11:14:27.431Z,99915.54
2023-02-19T11:16:57.074Z,99919.91
2023-02-19T11:19:28.411Z,99922.99
2023-02-19T11:21:56.233Z,99922.56
2023-02-19T11:24:34.418Z,99921.09
2023-02-19T11:27:05.265Z,99919.85
2023-02-19T11:29:34.968Z,99920.76
2023-02-19T11:32:24.813Z,99917.34
2023-02-19T11:35:04.966Z,99915.44
2023-02-19T11:37:31.257Z,99921.58
2023-02-19T11:39:58.089Z,99923.38
2023-02-19T11:42:50.648Z,99922.87
2023-02-19T11:45:34.042Z,99919.11
2023-02-19T11:48:14.728Z,99921.50
2023-02-19T11:51:16.604Z,99928.70
2023-02-19T11:53:51.400Z,99924.04
2023-02-19T11:56:33.337Z,99930.91
2023-02-19T11:59:15.809Z,99930.65
2023-02-19T12:02:11.487Z,99932.80
2023-02-19T12:05:11.371Z,99933.73
2023-02-19T12:08:07.685Z,99935.00
2023-02-19T12:11:19.095Z,99944.58
2023-02-19T12:13:45.408Z,99946.56
2023-02-19T12:16:30.207Z,99948.59
2023-02-19T12:19:12.018Z,99953.41
2023-02-19T12:21:59.937Z,99955.05
2023-02-19T12:24:48.325Z,99948.84
2023-02-19T12:27:41.448Z,99952.29
2023-02-19T12:30:17.359Z,99957.80
2023-02-19T12:33:05.349Z,99961.48
2023-02-19T12:35:58.066Z,99964.50
2023-02-19T12:38:34.628Z,99971.52
2023-02-19T12:41:31.520Z,99974.71
2023-02-19T12:44:23.756Z,99981.08
2023-02-19T12:47:00.588Z,99990.87
2023-02-19T12:49:35.242Z,99993.60
2023-02-19T12:52:09.411Z,99993.76
2023-02-19T12:54:43.396Z,99994.66
2023-02-19T12:57:20.142Z,99994.86
2023-02-19T12:59:56.098Z,99991.98
2023-02-19T13:02:33.284Z,99995.22
2023-02-19T13:05:17.926Z,99995.39
2023-02-19T13:08:15.701Z,100002.96
2023-02-19T13:11:20.169Z,100005.36
2023-02-19T13:13:59.044Z,100009.31
2023-02-19T13:19:15.244Z,100011.79
2023-02-19T13:22:09.710Z,100012.41
2023-02-19T13:24:42.132Z,100014.10
2023-02-19T13:27:34.694Z,100015.45
2023-02-19T13:30:24.351Z,100017.76
2023-02-19T13:33:05.334Z,100016.72
2023-02-19T13:35:58.446Z,100016.63
2023-02-19T13:38:27.075Z,100013.89
2023-02-19T13:41:00.149Z,100020.64
2023-02-19T13:43:37.122Z,100028.11
2023-02-19T13:46:09.701Z,100032.81
2023-02-19T13:48:40.568Z,100040.20
2023-02-19T13:51:23.694Z,100039.11
2023-02-19T13:53:54.590Z,100046.06
2023-02-19T13:56:34.495Z,100046.83
2023-02-19T13:59:37.641Z,100044.56
2023-02-19T14:02:25.934Z,100044.10
2023-02-19T14:05:02.017Z,100049.98
2023-02-19T14:07:51.147Z,100044.96
2023-02-19T14:10:52.129Z,100050.92
2023-02-19T14:13:47.589Z,100052.70
2023-02-19T14:16:52.685Z,100061.83
2023-02-19T14:19:42.722Z,100063.92
2023-02-19T14:22:48.847Z,100067.53
2023-02-19T14:25:28.566Z,100068.71
2023-02-19T14:28:15.388Z,100068.76
2023-02-19T14:30:59.311Z,100066.30
2023-02-19T14:33:31.506Z,100062.80
2023-02-19T14:36:06.176Z,100064.30
2023-02-19T14:38:39.524Z,100068.70
2023-02-19T14:41:13.732Z,100073.90
2023-02-19T14:43:43.654Z,100079.08
2023-02-19T14:46:31.241Z,100082.84
2023-02-19T14:49:07.288Z,100083.37
2023-02-19T14:51:44.870Z,100081.92
2023-02-19T14:54:21.073Z,100085.86
2023-02-19T14:56:55.237Z,100090.64
2023-02-19T14:59:26.784Z,100089.52
2023-02-19T15:02:03.689Z,100095.91
2023-02-19T15:04:36.884Z,100101.37
2023-02-19T15:07:08.513Z,100103.58
2023-02-19T15:09:41.279Z,100106.77
2023-02-19T15:12:17.291Z,100110.63
2023-02-19T15:14:46.645Z,100110.84
2023-02-19T15:17:25.571Z,100119.63
2023-02-19T15:19:55.570Z,100116.23
2023-02-19T15:22:25.895Z,100121.35
2023-02-19T15:24:54.702Z,100120.40
2023-02-19T15:27:24.544Z,100126.63
2023-02-19T15:29:53.768Z,100127.08
2023-02-19T15:32:27.251Z,100136.88
2023-02-19T15:35:03.991Z,100141.19
2023-02-19T15:37:35.689Z,100144.14
2023-02-19T15:40:07.732Z,100147.42
2023-02-19T15:42:37.213Z,100146.21
2023-02-19T15:45:23.680Z,100150.77
2023-02-19T15:47:55.656Z,100152.27
2023-02-19T15:50:33.217Z,100156.61
2023-02-19T15:53:09.513Z,100158.11
2023-02-19T15:55:45.056Z,100159.39
2023-02-19T15:58:32.323Z,100164.58
2023-02-19T16:01:04.747Z,100168.41
2023-02-19T16:03:32.817Z,100175.41
2023-02-19T16:06:11.473Z,100178.67
2023-02-19T16:08:40.874Z,100183.33
2023-02-19T16:11:24.055Z,100187.30
2023-02-19T16:13:52.116Z,100192.52
2023-02-19T16:19:43.994Z,100196.10
2023-02-19T16:22:15.980Z,100199.33
2023-02-19T16:24:46.874Z,100207.25
2023-02-19T16:27:40.817Z,100213.48
2023-02-19T16:30:36.238Z,100218.08
2023-02-19T16:33:21.280Z,100222.85
2023-02-19T16:35:55.135Z,100225.94
2023-02-19T16:38:25.432Z,100230.97
2023-02-19T16:41:07.440Z,100234.94
2023-02-19T16:43:41.689Z,100240.70
2023-02-19T16:46:11.959Z,100243.04
2023-02-19T16:48:39.821Z,100245.33
2023-02-19T16:51:09.020Z,100248.48
2023-02-19T16:53:36.922Z,100252.09
2023-02-19T16:56:05.060Z,100256.80
2023-02-19T16:58:32.777Z,100261.31
2023-02-19T17:01:02.251Z,100265.00
2023-02-19T17:03:30.261Z,100269.78
2023-02-19T17:05:57.945Z,100271.06
2023-02-19T17:08:34.044Z,100273.23
2023-02-19T17:11:05.508Z,100275.02
2023-02-19T17:13:33.432Z,100274.61
2023-02-19T17:16:01.991Z,100276.64
2023-02-19T17:18:30.021Z,100277.19
2023-02-19T17:21:20.476Z,100272.17
2023-02-19T17:23:51.448Z,100278.55
2023-02-19T17:26:22.988Z,100279.73
2023-02-19T17:28:51.288Z,100288.24
2023-02-19T17:31:19.221Z,100294.05
2023-02-19T17:33:47.109Z,100298.41
2023-02-19T17:36:22.365Z,100306.79
2023-02-19T17:38:50.742Z,100313.39
2023-02-19T17:41:18.734Z,100313.95
2023-02-19T17:43:47.521Z,100312.27
2023-02-19T17:46:21.297Z,100316.68
2023-02-19T17:48:50.893Z,100321.61
2023-02-19T17:51:18.861Z,100329.36
2023-02-19T17:53:47.015Z,100339.17
2023-02-19T17:56:22.404Z,100335.98
2023-02-19T17:58:50.363Z,100341.24
2023-02-19T18:01:18.306Z,100349.36
2023-02-19T18:03:46.434Z,100354.59
2023-02-19T18:06:14.555Z,100358.50
2023-02-19T18:08:52.656Z,100361.86
2023-02-19T18:11:22.700Z,100366.46
2023-02-19T18:13:52.034Z,100372.36
2023-02-19T18:16:20.046Z,100374.66
2023-02-19T18:18:47.952Z,100380.22
2023-02-19T18:21:15.839Z,100382.92
2023-02-19T18:23:43.726Z,100380.84
2023-02-19T18:26:11.940Z,100381.99
2023-02-19T18:28:40.277Z,100387.17
2023-02-19T18:31:08.632Z,100387.71
2023-02-19T18:33:37.912Z,100381.52
2023-02-19T18:36:11.596Z,100383.59
2023-02-19T18:38:39.463Z,100385.77
2023-02-19T18:41:11.433Z,100390.32
2023-02-19T18:43:41.524Z,100396.17
2023-02-19T18:46:10.266Z,100397.95
2023-02-19T18:48:38.511Z,100400.13
2023-02-19T18:51:10.940Z,100400.14
2023-02-19T18:53:38.899Z,100403.58
2023-02-19T18:56:09.028Z,100409.08
2023-02-19T18:58:36.764Z,100410.39
2023-02-19T19:01:04.731Z,100417.75
2023-02-19T19:03:32.481Z,100422.55
2023-02-19T19:06:00.703Z,100428.46
2023-02-19T19:08:30.651Z,100432.05
2023-02-19T19:10:58.804Z,100434.11
2023-02-19T19:13:26.733Z,100438.38
2023-02-19T19:15:54.837Z,100443.74
2023-02-19T19:18:22.835Z,100450.71
2023-02-19T19:20:50.662Z,100453.75
2023-02-19T19:23:18.493Z,100453.04
2023-02-19T19:25:48.683Z,100450.85
2023-02-19T19:28:17.353Z,100456.09
2023-02-19T19:30:45.199Z,100461.11
2023-02-19T19:33:17.885Z,100459.16
2023-02-19T19:35:45.587Z,100462.34
2023-02-19T19:38:13.352Z,100466.85
2023-02-19T19:40:42.324Z,100470.67
2023-02-19T19:43:10.257Z,100465.86
2023-02-19T19:45:38.561Z,100468.83
2023-02-19T19:48:06.354Z,100473.91
2023-02-19T19:50:34.267Z,100477.34
2023-02-19T19:53:02.011Z,100483.04
2023-02-19T19:55:29.954Z,100481.02
2023-02-19T19:57:57.753Z,100481.50
2023-02-19T20:00:25.782Z,100480.23
2023-02-19T20:02:53.600Z,100479.49
2023-02-19T20:05:21.952Z,100480.30
2023-02-19T20:07:52.917Z,100481.52
2023-02-19T20:10:20.939Z,100483.14
2023-02-19T20:12:49.622Z,100482.85
2023-02-19T20:15:22.295Z,100476.13
2023-02-19T20:20:35.885Z,100478.94
2023-02-19T20:23:04.237Z,100483.60
2023-02-19T20:25:31.998Z,100488.42
2023-02-19T20:27:59.880Z,100486.98
2023-02-19T20:30:29.074Z,100488.77
2023-02-19T20:32:57.310Z,100493.38
2023-02-19T20:35:28.727Z,100499.61
2023-02-19T20:37:56.805Z,100506.27
2023-02-19T20:40:27.482Z,100507.65
2023-02-19T20:42:55.200Z,100509.84
2023-02-19T20:45:23.138Z,100513.84
2023-02-19T20:47:50.872Z,100518.34
2023-02-19T20:50:19.216Z,100519.21
2023-02-19T20:52:49.431Z,100522.50
2023-02-19T20:55:17.515Z,100530.22
2023-02-19T20:57:45.830Z,100529.30
2023-02-19T21:00:15.653Z,100529.84
2023-02-19T21:02:43.564Z,100537.98
2023-02-19T21:05:13.883Z,100534.73
2023-02-19T21:07:41.501Z,100545.86
2023-02-19T21:10:10.086Z,100544.56
2023-02-19T21:12:38.212Z,100548.92
2023-02-19T21:15:06.436Z,100547.84
2023-02-19T21:17:34.498Z,100549.50
2023-02-19T21:20:02.551Z,100558.35
2023-02-19T21:22:31.991Z,100558.21
2023-02-19T21:24:59.782Z,100564.16
2023-02-19T21:27:27.825Z,100569.14
2023-02-19T21:29:55.862Z,100577.25
2023-02-19T21:32:23.702Z,100581.95
2023-02-19T21:34:51.543Z,100584.14
2023-02-19T21:37:21.051Z,100580.26
2023-02-19T21:39:48.900Z,100576.77
2023-02-19T21:42:18.925Z,100574.20
2023-02-19T21:44:46.692Z,100568.74
2023-02-19T21:47:14.835Z,100570.36
2023-02-19T21:49:43.216Z,100572.52
2023-02-19T21:52:10.991Z,100571.36
2023-02-19T21:54:38.690Z,100572.16
2023-02-19T21:57:06.747Z,100575.19
2023-02-19T21:59:34.602Z,100579.14
2023-02-19T22:02:02.767Z,100576.53
2023-02-19T22:04:30.584Z,100578.13
2023-02-19T22:06:58.486Z,100583.05
2023-02-19T22:09:26.571Z,100584.55
2023-02-19T22:11:54.416Z,100587.38
2023-02-19T22:14:22.144Z,100580.38
2023-02-19T22:16:49.947Z,100580.02
2023-02-19T22:19:17.789Z,100582.84
2023-02-19T22:21:45.567Z,100587.73
2023-02-19T22:24:18.693Z,100586.73
2023-02-19T22:26:46.542Z,100591.98
2023-02-19T22:29:16.060Z,100592.73
2023-02-19T22:31:43.855Z,100596.41
2023-02-19T22:34:11.828Z,100595.80
2023-02-19T22:36:40.303Z,100597.80
2023-02-19T22:39:14.895Z,100598.10
2023-02-19T22:41:43.154Z,100594.67
2023-02-19T22:44:11.376Z,100595.95
2023-02-19T22:46:39.329Z,100590.66
2023-02-19T22:49:07.453Z,100588.21
2023-02-19T22:51:35.642Z,100592.77
2023-02-19T22:54:03.568Z,100596.96
2023-02-19T22:56:31.180Z,100594.90
2023-02-19T22:59:00.496Z,100601.33
2023-02-19T23:01:28.326Z,100596.84
2023-02-19T23:03:58.238Z,100594.77
2023-02-19T23:06:31.980Z,100586.67
2023-02-19T23:09:04.810Z,100583.17
2023-02-19T23:11:35.158Z,100588.59
2023-02-19T23:14:03.330Z,100584.64
2023-02-19T23:19:56.973Z,100578.86
2023-02-19T23:22:24.739Z,100581.27
2023-02-19T23:24:52.396Z,100573.55
2023-02-19T23:27:20.265Z,100577.42
2023-02-19T23:29:47.909Z,100576.34
2023-02-19T23:32:20.834Z,100580.77
2023-02-19T23:34:48.520Z,100584.82
2023-02-19T23:37:16.759Z,100589.34
2023-02-19T23:39:44.780Z,100588.54
2023-02-19T23:42:16.566Z,100582.61
2023-02-19T23:44:47.744Z,100584.41
2023-02-19T23:47:15.624Z,100585.48
2023-02-19T23:49:43.327Z,100586.30
2023-02-19T23:52:11.013Z,100586.36
2023-02-19T23:54:39.516Z,100580.00
2023-02-19T23:57:07.300Z,100575.11
2023-02-19T23:59:34.959Z,100576.59
